Terminal Aerodrome Forecast
Issued by NWS

Home | Current Version | Previous Version | Text Only | Print | Product List | Glossary On
Versions: 1 2 3 4 5 6 7 8 9 10 11 12 13 14 15 16 17 18 19 20 21 22 23 24 25 26 27 28 29 30 31 32 33
000
FTUS41 KOKX 211140
TAFHPN
TAF
KHPN 211140Z 2112/2212 31006KT P6SM FEW080
     FM211500 30006KT P6SM FEW040 FEW080
     FM212100 28008KT P6SM FEW050
     FM220100 31004KT P6SM SCT060
      AMD NOT SKED=

USA.gov is the U.S. government's official web portal to all federal, state and local government web resources and services.